sensor_id;sensor_type;location;lat;lon;timestamp;P1;durP1;ratioP1;P2;durP2;ratioP2
5491;SDS011;2768;53.540;10.224;2023-07-02T00:05:17;5.07;;;2.77;;
5491;SDS011;2768;53.540;10.224;2023-07-02T00:11:11;8.80;;;2.87;;
5491;SDS011;2768;53.540;10.224;2023-07-02T00:17:04;4.60;;;3.03;;
5491;SDS011;2768;53.540;10.224;2023-07-02T00:22:59;4.63;;;3.03;;
5491;SDS011;2768;53.540;10.224;2023-07-02T00:28:53;5.57;;;3.10;;
5491;SDS011;2768;53.540;10.224;2023-07-02T00:34:48;10.30;;;3.73;;
5491;SDS011;2768;53.540;10.224;2023-07-02T00:40:42;7.07;;;2.87;;
5491;SDS011;2768;53.540;10.224;2023-07-02T00:46:37;6.83;;;3.80;;
5491;SDS011;2768;53.540;10.224;2023-07-02T00:52:31;5.93;;;3.03;;
5491;SDS011;2768;53.540;10.224;2023-07-02T00:58:26;3.40;;;3.10;;
5491;SDS011;2768;53.540;10.224;2023-07-02T01:04:19;7.40;;;3.40;;
5491;SDS011;2768;53.540;10.224;2023-07-02T01:10:20;6.10;;;4.03;;
5491;SDS011;2768;53.540;10.224;2023-07-02T01:16:15;7.47;;;3.77;;
5491;SDS011;2768;53.540;10.224;2023-07-02T01:22:11;6.73;;;3.60;;
5491;SDS011;2768;53.540;10.224;2023-07-02T01:28:05;7.43;;;3.30;;
5491;SDS011;2768;53.540;10.224;2023-07-02T01:33:59;5.27;;;4.03;;
5491;SDS011;2768;53.540;10.224;2023-07-02T01:39:54;5.43;;;3.60;;
5491;SDS011;2768;53.540;10.224;2023-07-02T01:45:48;7.03;;;3.57;;
5491;SDS011;2768;53.540;10.224;2023-07-02T01:51:44;7.07;;;3.40;;
5491;SDS011;2768;53.540;10.224;2023-07-02T01:57:39;5.37;;;3.50;;
5491;SDS011;2768;53.540;10.224;2023-07-02T02:03:32;4.80;;;3.83;;
5491;SDS011;2768;53.540;10.224;2023-07-02T02:09:26;7.23;;;4.30;;
5491;SDS011;2768;53.540;10.224;2023-07-02T02:15:21;5.43;;;4.20;;
5491;SDS011;2768;53.540;10.224;2023-07-02T02:21:15;12.83;;;5.00;;
5491;SDS011;2768;53.540;10.224;2023-07-02T02:27:08;7.27;;;4.10;;
5491;SDS011;2768;53.540;10.224;2023-07-02T02:33:03;5.67;;;4.40;;
5491;SDS011;2768;53.540;10.224;2023-07-02T02:38:56;4.77;;;3.90;;
5491;SDS011;2768;53.540;10.224;2023-07-02T02:44:52;9.70;;;4.10;;
5491;SDS011;2768;53.540;10.224;2023-07-02T02:50:47;6.00;;;4.30;;
5491;SDS011;2768;53.540;10.224;2023-07-02T02:56:42;5.20;;;3.80;;
5491;SDS011;2768;53.540;10.224;2023-07-02T03:02:35;6.80;;;4.37;;
5491;SDS011;2768;53.540;10.224;2023-07-02T03:08:30;6.03;;;4.20;;
5491;SDS011;2768;53.540;10.224;2023-07-02T03:14:24;14.00;;;5.20;;
5491;SDS011;2768;53.540;10.224;2023-07-02T03:20:17;7.60;;;4.60;;
5491;SDS011;2768;53.540;10.224;2023-07-02T03:26:12;4.83;;;4.07;;
5491;SDS011;2768;53.540;10.224;2023-07-02T03:32:05;6.53;;;4.70;;
5491;SDS011;2768;53.540;10.224;2023-07-02T03:37:59;7.80;;;4.47;;
5491;SDS011;2768;53.540;10.224;2023-07-02T03:43:54;11.47;;;4.77;;
5491;SDS011;2768;53.540;10.224;2023-07-02T03:49:47;5.37;;;4.00;;
5491;SDS011;2768;53.540;10.224;2023-07-02T03:55:41;9.10;;;4.80;;
5491;SDS011;2768;53.540;10.224;2023-07-02T04:01:36;10.80;;;5.20;;
5491;SDS011;2768;53.540;10.224;2023-07-02T04:07:30;9.87;;;4.60;;
5491;SDS011;2768;53.540;10.224;2023-07-02T04:13:23;7.67;;;4.57;;
5491;SDS011;2768;53.540;10.224;2023-07-02T04:19:18;8.60;;;4.97;;
5491;SDS011;2768;53.540;10.224;2023-07-02T04:25:11;13.60;;;5.67;;
5491;SDS011;2768;53.540;10.224;2023-07-02T04:31:27;8.90;;;4.70;;
5491;SDS011;2768;53.540;10.224;2023-07-02T04:37:21;11.60;;;5.83;;
5491;SDS011;2768;53.540;10.224;2023-07-02T04:43:15;11.83;;;5.30;;
5491;SDS011;2768;53.540;10.224;2023-07-02T04:49:12;10.77;;;6.37;;
5491;SDS011;2768;53.540;10.224;2023-07-02T04:55:07;15.53;;;5.77;;
5491;SDS011;2768;53.540;10.224;2023-07-02T05:01:00;11.37;;;6.03;;
5491;SDS011;2768;53.540;10.224;2023-07-02T05:06:54;14.33;;;6.50;;
5491;SDS011;2768;53.540;10.224;2023-07-02T05:12:49;14.30;;;6.17;;
5491;SDS011;2768;53.540;10.224;2023-07-02T05:18:44;17.53;;;6.23;;
5491;SDS011;2768;53.540;10.224;2023-07-02T05:24:37;16.53;;;6.30;;
5491;SDS011;2768;53.540;10.224;2023-07-02T05:30:33;14.53;;;6.40;;
5491;SDS011;2768;53.540;10.224;2023-07-02T05:36:27;16.93;;;7.20;;
5491;SDS011;2768;53.540;10.224;2023-07-02T05:42:20;17.70;;;7.27;;
5491;SDS011;2768;53.540;10.224;2023-07-02T05:48:15;18.00;;;7.10;;
5491;SDS011;2768;53.540;10.224;2023-07-02T05:54:08;14.43;;;7.43;;
5491;SDS011;2768;53.540;10.224;2023-07-02T06:00:02;15.57;;;7.30;;
5491;SDS011;2768;53.540;10.224;2023-07-02T06:06:03;13.13;;;6.20;;
5491;SDS011;2768;53.540;10.224;2023-07-02T06:11:56;17.33;;;7.67;;
5491;SDS011;2768;53.540;10.224;2023-07-02T06:17:51;17.73;;;7.20;;
5491;SDS011;2768;53.540;10.224;2023-07-02T06:23:46;18.77;;;7.07;;
5491;SDS011;2768;53.540;10.224;2023-07-02T06:29:40;20.10;;;7.87;;
5491;SDS011;2768;53.540;10.224;2023-07-02T06:35:34;18.97;;;7.50;;
5491;SDS011;2768;53.540;10.224;2023-07-02T06:41:29;21.37;;;7.77;;
5491;SDS011;2768;53.540;10.224;2023-07-02T06:47:23;20.40;;;7.73;;
5491;SDS011;2768;53.540;10.224;2023-07-02T06:53:16;14.20;;;6.87;;
5491;SDS011;2768;53.540;10.224;2023-07-02T06:59:11;16.10;;;7.33;;
5491;SDS011;2768;53.540;10.224;2023-07-02T07:05:05;16.13;;;7.30;;
5491;SDS011;2768;53.540;10.224;2023-07-02T07:10:58;17.40;;;7.53;;
5491;SDS011;2768;53.540;10.224;2023-07-02T07:16:53;14.77;;;7.90;;
5491;SDS011;2768;53.540;10.224;2023-07-02T07:22:46;18.80;;;7.70;;
5491;SDS011;2768;53.540;10.224;2023-07-02T07:28:40;20.13;;;7.50;;
5491;SDS011;2768;53.540;10.224;2023-07-02T07:34:35;16.87;;;7.77;;
5491;SDS011;2768;53.540;10.224;2023-07-02T07:40:28;18.23;;;7.27;;
5491;SDS011;2768;53.540;10.224;2023-07-02T07:46:21;17.80;;;8.00;;
5491;SDS011;2768;53.540;10.224;2023-07-02T07:52:17;19.83;;;8.97;;
5491;SDS011;2768;53.540;10.224;2023-07-02T07:58:10;17.27;;;7.10;;
5491;SDS011;2768;53.540;10.224;2023-07-02T08:04:03;14.70;;;6.87;;
5491;SDS011;2768;53.540;10.224;2023-07-02T08:09:59;17.77;;;6.90;;
5491;SDS011;2768;53.540;10.224;2023-07-02T08:15:53;11.90;;;6.97;;
5491;SDS011;2768;53.540;10.224;2023-07-02T08:21:47;13.10;;;7.40;;
5491;SDS011;2768;53.540;10.224;2023-07-02T08:27:42;14.80;;;6.47;;
5491;SDS011;2768;53.540;10.224;2023-07-02T08:33:35;13.40;;;6.67;;
5491;SDS011;2768;53.540;10.224;2023-07-02T08:39:28;14.53;;;6.43;;
5491;SDS011;2768;53.540;10.224;2023-07-02T08:45:24;16.33;;;6.00;;
5491;SDS011;2768;53.540;10.224;2023-07-02T08:51:18;11.43;;;5.47;;
5491;SDS011;2768;53.540;10.224;2023-07-02T08:57:12;10.53;;;4.83;;
5491;SDS011;2768;53.540;10.224;2023-07-02T09:03:14;9.27;;;5.30;;
5491;SDS011;2768;53.540;10.224;2023-07-02T09:09:08;15.20;;;5.33;;
5491;SDS011;2768;53.540;10.224;2023-07-02T09:15:01;10.60;;;4.70;;
5491;SDS011;2768;53.540;10.224;2023-07-02T09:20:59;9.93;;;4.10;;
5491;SDS011;2768;53.540;10.224;2023-07-02T09:26:54;11.03;;;4.73;;
5491;SDS011;2768;53.540;10.224;2023-07-02T09:32:48;7.70;;;4.70;;
5491;SDS011;2768;53.540;10.224;2023-07-02T09:38:43;10.40;;;5.20;;
5491;SDS011;2768;53.540;10.224;2023-07-02T09:44:36;13.43;;;5.80;;
5491;SDS011;2768;53.540;10.224;2023-07-02T09:50:32;11.03;;;5.50;;
5491;SDS011;2768;53.540;10.224;2023-07-02T09:56:27;7.77;;;5.03;;
5491;SDS011;2768;53.540;10.224;2023-07-02T10:02:21;10.47;;;5.20;;
5491;SDS011;2768;53.540;10.224;2023-07-02T10:08:14;8.10;;;4.30;;
5491;SDS011;2768;53.540;10.224;2023-07-02T10:14:11;9.63;;;4.03;;
5491;SDS011;2768;53.540;10.224;2023-07-02T10:20:05;8.40;;;3.97;;
5491;SDS011;2768;53.540;10.224;2023-07-02T10:26:13;12.27;;;4.40;;
5491;SDS011;2768;53.540;10.224;2023-07-02T10:32:09;14.57;;;5.03;;
5491;SDS011;2768;53.540;10.224;2023-07-02T10:38:02;14.13;;;5.27;;
5491;SDS011;2768;53.540;10.224;2023-07-02T10:44:08;9.23;;;3.97;;
5491;SDS011;2768;53.540;10.224;2023-07-02T10:50:03;7.50;;;3.73;;
5491;SDS011;2768;53.540;10.224;2023-07-02T10:56:07;10.10;;;3.90;;
5491;SDS011;2768;53.540;10.224;2023-07-02T11:02:08;9.00;;;4.20;;
5491;SDS011;2768;53.540;10.224;2023-07-02T11:08:08;11.70;;;4.57;;
5491;SDS011;2768;53.540;10.224;2023-07-02T11:14:02;7.77;;;4.30;;
5491;SDS011;2768;53.540;10.224;2023-07-02T11:19:55;10.70;;;3.83;;
5491;SDS011;2768;53.540;10.224;2023-07-02T11:25:57;9.60;;;3.90;;
5491;SDS011;2768;53.540;10.224;2023-07-02T11:31:51;6.30;;;2.60;;
5491;SDS011;2768;53.540;10.224;2023-07-02T11:37:44;7.40;;;3.17;;
5491;SDS011;2768;53.540;10.224;2023-07-02T11:43:41;7.40;;;3.30;;
5491;SDS011;2768;53.540;10.224;2023-07-02T11:49:34;8.00;;;3.10;;
5491;SDS011;2768;53.540;10.224;2023-07-02T11:55:27;5.63;;;3.03;;
5491;SDS011;2768;53.540;10.224;2023-07-02T12:01:22;6.10;;;2.93;;
5491;SDS011;2768;53.540;10.224;2023-07-02T12:07:15;7.67;;;2.50;;
5491;SDS011;2768;53.540;10.224;2023-07-02T12:13:09;7.63;;;2.50;;
5491;SDS011;2768;53.540;10.224;2023-07-02T12:19:03;3.43;;;2.27;;
5491;SDS011;2768;53.540;10.224;2023-07-02T12:24:56;7.37;;;3.03;;
5491;SDS011;2768;53.540;10.224;2023-07-02T12:30:50;7.47;;;2.50;;
5491;SDS011;2768;53.540;10.224;2023-07-02T12:36:44;7.23;;;2.63;;
5491;SDS011;2768;53.540;10.224;2023-07-02T12:42:37;6.67;;;3.43;;
5491;SDS011;2768;53.540;10.224;2023-07-02T12:48:30;10.00;;;2.80;;
5491;SDS011;2768;53.540;10.224;2023-07-02T12:54:26;3.63;;;2.13;;
5491;SDS011;2768;53.540;10.224;2023-07-02T13:00:19;4.07;;;2.47;;
5491;SDS011;2768;53.540;10.224;2023-07-02T13:06:13;7.10;;;2.30;;
5491;SDS011;2768;53.540;10.224;2023-07-02T13:12:08;4.50;;;2.47;;
5491;SDS011;2768;53.540;10.224;2023-07-02T13:18:02;10.20;;;2.50;;
5491;SDS011;2768;53.540;10.224;2023-07-02T13:23:55;6.43;;;2.30;;
5491;SDS011;2768;53.540;10.224;2023-07-02T13:29:50;7.47;;;2.47;;
5491;SDS011;2768;53.540;10.224;2023-07-02T13:35:43;7.00;;;2.47;;
5491;SDS011;2768;53.540;10.224;2023-07-02T13:41:37;5.13;;;2.23;;
5491;SDS011;2768;53.540;10.224;2023-07-02T13:47:32;6.20;;;2.53;;
5491;SDS011;2768;53.540;10.224;2023-07-02T13:53:25;6.43;;;2.50;;
5491;SDS011;2768;53.540;10.224;2023-07-02T13:59:20;4.70;;;2.37;;
5491;SDS011;2768;53.540;10.224;2023-07-02T14:05:14;5.97;;;2.40;;
5491;SDS011;2768;53.540;10.224;2023-07-02T14:11:07;7.27;;;2.77;;
5491;SDS011;2768;53.540;10.224;2023-07-02T14:17:05;7.10;;;2.40;;
5491;SDS011;2768;53.540;10.224;2023-07-02T14:22:59;10.33;;;3.13;;
5491;SDS011;2768;53.540;10.224;2023-07-02T14:28:52;8.37;;;3.07;;
5491;SDS011;2768;53.540;10.224;2023-07-02T14:34:46;11.63;;;2.60;;
5491;SDS011;2768;53.540;10.224;2023-07-02T14:40:40;7.10;;;2.83;;
5491;SDS011;2768;53.540;10.224;2023-07-02T14:46:33;5.53;;;2.53;;
5491;SDS011;2768;53.540;10.224;2023-07-02T14:52:28;7.83;;;2.43;;
5491;SDS011;2768;53.540;10.224;2023-07-02T14:58:21;8.00;;;2.77;;
5491;SDS011;2768;53.540;10.224;2023-07-02T15:04:15;7.00;;;2.50;;
5491;SDS011;2768;53.540;10.224;2023-07-02T15:10:10;6.97;;;2.50;;
5491;SDS011;2768;53.540;10.224;2023-07-02T15:16:03;6.90;;;2.53;;
5491;SDS011;2768;53.540;10.224;2023-07-02T15:21:57;7.03;;;2.80;;
5491;SDS011;2768;53.540;10.224;2023-07-02T15:27:52;8.13;;;3.40;;
5491;SDS011;2768;53.540;10.224;2023-07-02T15:33:45;6.40;;;3.30;;
5491;SDS011;2768;53.540;10.224;2023-07-02T15:39:38;6.50;;;3.20;;
5491;SDS011;2768;53.540;10.224;2023-07-02T15:45:33;5.30;;;2.90;;
5491;SDS011;2768;53.540;10.224;2023-07-02T15:51:26;6.00;;;2.97;;
5491;SDS011;2768;53.540;10.224;2023-07-02T15:57:20;9.00;;;2.40;;
5491;SDS011;2768;53.540;10.224;2023-07-02T16:03:14;9.40;;;2.90;;
5491;SDS011;2768;53.540;10.224;2023-07-02T16:09:08;5.00;;;2.50;;
5491;SDS011;2768;53.540;10.224;2023-07-02T16:15:01;6.33;;;2.70;;
5491;SDS011;2768;53.540;10.224;2023-07-02T16:20:56;7.17;;;2.90;;
5491;SDS011;2768;53.540;10.224;2023-07-02T16:26:50;5.90;;;2.63;;
5491;SDS011;2768;53.540;10.224;2023-07-02T16:32:45;8.33;;;3.07;;
5491;SDS011;2768;53.540;10.224;2023-07-02T16:38:40;4.07;;;2.77;;
5491;SDS011;2768;53.540;10.224;2023-07-02T16:44:34;6.37;;;2.43;;
5491;SDS011;2768;53.540;10.224;2023-07-02T16:50:28;7.00;;;2.67;;
5491;SDS011;2768;53.540;10.224;2023-07-02T16:56:22;6.33;;;2.73;;
5491;SDS011;2768;53.540;10.224;2023-07-02T17:02:16;5.67;;;2.27;;
5491;SDS011;2768;53.540;10.224;2023-07-02T17:08:09;8.93;;;3.07;;
5491;SDS011;2768;53.540;10.224;2023-07-02T17:14:04;6.30;;;3.17;;
5491;SDS011;2768;53.540;10.224;2023-07-02T17:19:57;8.53;;;3.50;;
5491;SDS011;2768;53.540;10.224;2023-07-02T17:25:51;6.70;;;3.00;;
5491;SDS011;2768;53.540;10.224;2023-07-02T17:31:47;5.60;;;3.50;;
5491;SDS011;2768;53.540;10.224;2023-07-02T17:37:42;6.60;;;3.60;;
5491;SDS011;2768;53.540;10.224;2023-07-02T17:43:35;6.30;;;2.90;;
5491;SDS011;2768;53.540;10.224;2023-07-02T17:49:30;8.93;;;3.33;;
5491;SDS011;2768;53.540;10.224;2023-07-02T17:55:24;6.30;;;3.93;;
5491;SDS011;2768;53.540;10.224;2023-07-02T18:01:20;5.90;;;3.13;;
5491;SDS011;2768;53.540;10.224;2023-07-02T18:07:16;9.10;;;3.80;;
5491;SDS011;2768;53.540;10.224;2023-07-02T18:13:11;7.43;;;4.00;;
5491;SDS011;2768;53.540;10.224;2023-07-02T18:19:04;8.17;;;4.10;;
5491;SDS011;2768;53.540;10.224;2023-07-02T18:24:59;6.70;;;3.90;;
5491;SDS011;2768;53.540;10.224;2023-07-02T18:30:52;9.43;;;4.00;;
5491;SDS011;2768;53.540;10.224;2023-07-02T18:36:47;6.37;;;3.73;;
5491;SDS011;2768;53.540;10.224;2023-07-02T18:42:43;7.83;;;4.07;;
5491;SDS011;2768;53.540;10.224;2023-07-02T18:48:38;6.13;;;3.90;;
5491;SDS011;2768;53.540;10.224;2023-07-02T18:54:32;7.77;;;3.60;;
5491;SDS011;2768;53.540;10.224;2023-07-02T19:00:27;8.20;;;4.00;;
5491;SDS011;2768;53.540;10.224;2023-07-02T19:06:21;6.77;;;3.43;;
5491;SDS011;2768;53.540;10.224;2023-07-02T19:12:14;7.03;;;4.13;;
5491;SDS011;2768;53.540;10.224;2023-07-02T19:18:09;7.90;;;4.10;;
5491;SDS011;2768;53.540;10.224;2023-07-02T19:24:02;6.63;;;3.93;;
5491;SDS011;2768;53.540;10.224;2023-07-02T19:29:55;8.00;;;3.50;;
5491;SDS011;2768;53.540;10.224;2023-07-02T19:35:50;10.23;;;4.10;;
5491;SDS011;2768;53.540;10.224;2023-07-02T19:41:44;7.47;;;3.50;;
5491;SDS011;2768;53.540;10.224;2023-07-02T19:47:37;8.50;;;4.40;;
5491;SDS011;2768;53.540;10.224;2023-07-02T19:53:32;5.23;;;3.73;;
5491;SDS011;2768;53.540;10.224;2023-07-02T19:59:25;7.30;;;3.80;;
5491;SDS011;2768;53.540;10.224;2023-07-02T20:05:19;7.57;;;3.90;;
5491;SDS011;2768;53.540;10.224;2023-07-02T20:11:14;8.27;;;3.90;;
5491;SDS011;2768;53.540;10.224;2023-07-02T20:17:08;7.10;;;3.73;;
5491;SDS011;2768;53.540;10.224;2023-07-02T20:23:03;9.37;;;4.13;;
5491;SDS011;2768;53.540;10.224;2023-07-02T20:28:57;8.30;;;3.87;;
5491;SDS011;2768;53.540;10.224;2023-07-02T20:34:50;8.60;;;4.53;;
5491;SDS011;2768;53.540;10.224;2023-07-02T20:40:43;8.10;;;3.60;;
5491;SDS011;2768;53.540;10.224;2023-07-02T20:46:38;7.00;;;3.20;;
5491;SDS011;2768;53.540;10.224;2023-07-02T20:52:38;6.70;;;3.30;;
5491;SDS011;2768;53.540;10.224;2023-07-02T20:58:31;8.33;;;3.63;;
5491;SDS011;2768;53.540;10.224;2023-07-02T21:04:25;7.90;;;3.20;;
5491;SDS011;2768;53.540;10.224;2023-07-02T21:10:19;6.97;;;3.53;;
5491;SDS011;2768;53.540;10.224;2023-07-02T21:16:12;5.90;;;3.60;;
5491;SDS011;2768;53.540;10.224;2023-07-02T21:22:06;6.90;;;3.63;;
5491;SDS011;2768;53.540;10.224;2023-07-02T21:28:00;9.87;;;4.03;;
5491;SDS011;2768;53.540;10.224;2023-07-02T21:33:53;9.47;;;3.50;;
5491;SDS011;2768;53.540;10.224;2023-07-02T21:39:47;5.00;;;3.03;;
5491;SDS011;2768;53.540;10.224;2023-07-02T21:45:41;5.60;;;3.47;;
5491;SDS011;2768;53.540;10.224;2023-07-02T21:51:34;10.03;;;4.10;;
5491;SDS011;2768;53.540;10.224;2023-07-02T21:57:28;6.27;;;3.63;;
5491;SDS011;2768;53.540;10.224;2023-07-02T22:03:22;7.77;;;4.70;;
5491;SDS011;2768;53.540;10.224;2023-07-02T22:09:15;6.80;;;4.00;;
5491;SDS011;2768;53.540;10.224;2023-07-02T22:15:10;9.10;;;4.40;;
5491;SDS011;2768;53.540;10.224;2023-07-02T22:21:03;5.50;;;4.00;;
5491;SDS011;2768;53.540;10.224;2023-07-02T22:26:57;8.87;;;4.00;;
5491;SDS011;2768;53.540;10.224;2023-07-02T22:32:52;6.80;;;3.67;;
5491;SDS011;2768;53.540;10.224;2023-07-02T22:38:45;9.93;;;4.00;;
5491;SDS011;2768;53.540;10.224;2023-07-02T22:44:38;9.93;;;3.87;;
5491;SDS011;2768;53.540;10.224;2023-07-02T22:50:33;6.90;;;3.70;;
5491;SDS011;2768;53.540;10.224;2023-07-02T22:56:26;7.70;;;4.00;;
5491;SDS011;2768;53.540;10.224;2023-07-02T23:02:20;10.70;;;4.13;;
5491;SDS011;2768;53.540;10.224;2023-07-02T23:08:14;7.67;;;4.23;;
5491;SDS011;2768;53.540;10.224;2023-07-02T23:14:07;9.23;;;4.73;;
5491;SDS011;2768;53.540;10.224;2023-07-02T23:20:00;8.93;;;4.47;;
5491;SDS011;2768;53.540;10.224;2023-07-02T23:25:55;7.20;;;4.20;;
5491;SDS011;2768;53.540;10.224;2023-07-02T23:31:50;15.07;;;4.50;;
5491;SDS011;2768;53.540;10.224;2023-07-02T23:37:43;7.50;;;4.30;;
5491;SDS011;2768;53.540;10.224;2023-07-02T23:43:38;7.27;;;3.83;;
5491;SDS011;2768;53.540;10.224;2023-07-02T23:49:31;9.20;;;4.60;;
5491;SDS011;2768;53.540;10.224;2023-07-02T23:55:25;10.03;;;4.43;;
